Overview Statistics Trail Chart Weather Telemetry Raw packets
 

This is the latest recevied weather packets stored in our database for station/object WA9NNN-10. If no packets are shown the sender has not sent any weather packets the latest 10 day(s).

<< 56 57 58 59 60 61 62 >>
Time Temp. Humidity Pressure Rain* Wind** Luminosity Snow
1788203611 30° C 65% 1013 hPa 0 mm - - -
1788203311 30.56° C 62% 1012.7 hPa 0 mm - - -
1788203012 31.67° C 58% 1012.6 hPa 0 mm - - -
1788202711 32.22° C 56% 1012.9 hPa 0 mm - - -
1788202411 32.78° C 56% 1013 hPa 0 mm - - -
1788202111 32.78° C 55% 1013 hPa 0 mm - - -
1788201811 32.22° C 56% 1013 hPa 0 mm - - -
1788201511 32.22° C 56% 1013 hPa 0 mm - - -
1788201211 32.22° C 55% 1013 hPa 0 mm - - -
1788200911 32.78° C 54% 1013 hPa 0 mm - - -
1788200611 32.78° C 54% 1013 hPa 0 mm - - -
1788200311 32.22° C 55% 1012.9 hPa 0 mm - - -
1788200011 32.22° C 55% 1013 hPa 0 mm - - -
1788199711 32.22° C 55% 1013 hPa 0 mm - - -
1788199411 32.22° C 56% 1013.2 hPa 0 mm - - -
1788199111 31.67° C 58% 1013.3 hPa 0 mm - - -
1788198811 31.11° C 60% 1013.4 hPa 0 mm - - -
1788198511 30.56° C 59% 1013.5 hPa 0 mm - - -
1788198211 30.56° C 61% 1013.6 hPa 0 mm - - -
1788197911 30.56° C 62% 1013.7 hPa 0 mm - - -
1788197610 30° C 64% 1013.9 hPa 0 mm - - -
1788197311 29.44° C 66% 1014 hPa 0 mm - - -
1788197010 28.89° C 67% 1014.1 hPa 0 mm - - -
1788196711 28.33° C 68% 1014.2 hPa 0 mm - - -
1788196411 27.78° C 69% 1014.3 hPa 0 mm - - -

* Rain latest hour (hover to see other rain measurements)
** Current wind speed in m/s (hover to see current wind gust speed)